sensor_id;sensor_type;location;lat;lon;timestamp;temperature;humidity
15133;DHT22;7667;51.232;17.110;2023-02-15T00:00:08;-1.30;99.90
15133;DHT22;7667;51.232;17.110;2023-02-15T00:02:39;-1.40;99.90
15133;DHT22;7667;51.232;17.110;2023-02-15T00:05:07;-1.50;99.90
15133;DHT22;7667;51.232;17.110;2023-02-15T00:07:35;-1.70;99.90
15133;DHT22;7667;51.232;17.110;2023-02-15T00:10:03;-1.60;99.90
15133;DHT22;7667;51.232;17.110;2023-02-15T00:12:31;-1.50;99.90
15133;DHT22;7667;51.232;17.110;2023-02-15T00:14:59;-1.60;99.90
15133;DHT22;7667;51.232;17.110;2023-02-15T00:17:29;-1.60;99.90
15133;DHT22;7667;51.232;17.110;2023-02-15T00:19:57;-1.60;99.90
15133;DHT22;7667;51.232;17.110;2023-02-15T00:22:25;-1.60;99.90
15133;DHT22;7667;51.232;17.110;2023-02-15T00:24:53;-1.60;99.90
15133;DHT22;7667;51.232;17.110;2023-02-15T00:27:20;-1.60;99.90
15133;DHT22;7667;51.232;17.110;2023-02-15T00:29:48;-1.70;99.90
15133;DHT22;7667;51.232;17.110;2023-02-15T00:32:15;-1.60;99.90
15133;DHT22;7667;51.232;17.110;2023-02-15T00:34:43;-1.70;99.90
15133;DHT22;7667;51.232;17.110;2023-02-15T00:37:10;-1.90;99.90
15133;DHT22;7667;51.232;17.110;2023-02-15T00:39:38;-1.90;99.90
15133;DHT22;7667;51.232;17.110;2023-02-15T00:42:05;-2.00;99.90
15133;DHT22;7667;51.232;17.110;2023-02-15T00:44:32;-2.10;99.90
15133;DHT22;7667;51.232;17.110;2023-02-15T00:47:00;-2.10;99.90
15133;DHT22;7667;51.232;17.110;2023-02-15T00:49:27;-2.20;99.90
15133;DHT22;7667;51.232;17.110;2023-02-15T00:51:55;-2.10;99.90
15133;DHT22;7667;51.232;17.110;2023-02-15T00:54:22;-2.10;99.90
15133;DHT22;7667;51.232;17.110;2023-02-15T00:56:50;-2.10;99.90
15133;DHT22;7667;51.232;17.110;2023-02-15T00:59:17;-2.20;99.90
15133;DHT22;7667;51.232;17.110;2023-02-15T01:01:45;-2.20;99.90
15133;DHT22;7667;51.232;17.110;2023-02-15T01:04:12;-2.30;99.90
15133;DHT22;7667;51.232;17.110;2023-02-15T01:06:40;-2.30;99.90
15133;DHT22;7667;51.232;17.110;2023-02-15T01:09:08;-2.30;99.90
15133;DHT22;7667;51.232;17.110;2023-02-15T01:11:36;-2.20;99.90
15133;DHT22;7667;51.232;17.110;2023-02-15T01:14:03;-2.40;99.90
15133;DHT22;7667;51.232;17.110;2023-02-15T01:16:32;-2.40;99.90
15133;DHT22;7667;51.232;17.110;2023-02-15T01:18:59;-2.50;99.90
15133;DHT22;7667;51.232;17.110;2023-02-15T01:21:29;-2.60;99.90
15133;DHT22;7667;51.232;17.110;2023-02-15T01:23:57;-2.60;99.90
15133;DHT22;7667;51.232;17.110;2023-02-15T01:26:24;-2.60;99.90
15133;DHT22;7667;51.232;17.110;2023-02-15T01:28:52;-2.70;99.90
15133;DHT22;7667;51.232;17.110;2023-02-15T01:31:20;-2.70;99.90
15133;DHT22;7667;51.232;17.110;2023-02-15T01:33:48;-2.70;99.90
15133;DHT22;7667;51.232;17.110;2023-02-15T01:36:16;-2.60;99.90
15133;DHT22;7667;51.232;17.110;2023-02-15T01:38:44;-2.50;99.90
15133;DHT22;7667;51.232;17.110;2023-02-15T01:41:12;-2.40;99.90
15133;DHT22;7667;51.232;17.110;2023-02-15T01:43:56;-2.30;99.90
15133;DHT22;7667;51.232;17.110;2023-02-15T01:46:35;-2.40;99.90
15133;DHT22;7667;51.232;17.110;2023-02-15T01:49:16;-2.40;99.90
15133;DHT22;7667;51.232;17.110;2023-02-15T01:51:46;-2.40;99.90
15133;DHT22;7667;51.232;17.110;2023-02-15T01:54:23;-2.30;99.90
15133;DHT22;7667;51.232;17.110;2023-02-15T01:57:01;-2.10;99.90
15133;DHT22;7667;51.232;17.110;2023-02-15T01:59:32;-2.00;99.90
15133;DHT22;7667;51.232;17.110;2023-02-15T02:02:01;-2.00;99.90
15133;DHT22;7667;51.232;17.110;2023-02-15T02:04:41;-2.00;99.90
15133;DHT22;7667;51.232;17.110;2023-02-15T02:07:14;-2.10;99.90
15133;DHT22;7667;51.232;17.110;2023-02-15T02:09:45;-2.20;99.90
15133;DHT22;7667;51.232;17.110;2023-02-15T02:12:13;-2.30;99.90
15133;DHT22;7667;51.232;17.110;2023-02-15T02:14:42;-2.40;99.90
15133;DHT22;7667;51.232;17.110;2023-02-15T02:17:42;-2.50;99.90
15133;DHT22;7667;51.232;17.110;2023-02-15T02:27:11;-2.70;99.90
15133;DHT22;7667;51.232;17.110;2023-02-15T02:33:29;-2.90;99.90
15133;DHT22;7667;51.232;17.110;2023-02-15T02:36:21;-3.00;99.90
15133;DHT22;7667;51.232;17.110;2023-02-15T02:44:55;-3.00;99.90
15133;DHT22;7667;51.232;17.110;2023-02-15T02:47:52;-3.00;99.90
15133;DHT22;7667;51.232;17.110;2023-02-15T02:50:28;-3.00;99.90
15133;DHT22;7667;51.232;17.110;2023-02-15T02:52:58;-2.90;99.90
15133;DHT22;7667;51.232;17.110;2023-02-15T02:55:33;-2.90;99.90
15133;DHT22;7667;51.232;17.110;2023-02-15T03:01:15;-2.80;99.90
15133;DHT22;7667;51.232;17.110;2023-02-15T03:04:21;-2.70;99.90
15133;DHT22;7667;51.232;17.110;2023-02-15T03:06:55;-2.80;99.90
15133;DHT22;7667;51.232;17.110;2023-02-15T03:09:29;-2.80;99.90
15133;DHT22;7667;51.232;17.110;2023-02-15T03:12:20;-2.70;99.90
15133;DHT22;7667;51.232;17.110;2023-02-15T03:14:58;-2.80;99.90
15133;DHT22;7667;51.232;17.110;2023-02-15T03:17:45;-2.80;99.90
15133;DHT22;7667;51.232;17.110;2023-02-15T03:20:29;-2.80;99.90
15133;DHT22;7667;51.232;17.110;2023-02-15T03:23:02;-2.80;99.90
15133;DHT22;7667;51.232;17.110;2023-02-15T03:25:34;-2.80;99.90
15133;DHT22;7667;51.232;17.110;2023-02-15T03:28:08;-2.80;99.90
15133;DHT22;7667;51.232;17.110;2023-02-15T03:30:40;-2.80;99.90
15133;DHT22;7667;51.232;17.110;2023-02-15T03:33:10;-2.80;99.90
15133;DHT22;7667;51.232;17.110;2023-02-15T03:35:47;-2.70;99.90
15133;DHT22;7667;51.232;17.110;2023-02-15T03:38:47;-2.70;99.90
15133;DHT22;7667;51.232;17.110;2023-02-15T03:41:17;-2.80;99.90
15133;DHT22;7667;51.232;17.110;2023-02-15T03:49:25;-2.80;99.90
15133;DHT22;7667;51.232;17.110;2023-02-15T03:51:58;-2.90;99.90
15133;DHT22;7667;51.232;17.110;2023-02-15T03:54:29;-3.00;99.90
15133;DHT22;7667;51.232;17.110;2023-02-15T03:57:23;-3.00;99.90
15133;DHT22;7667;51.232;17.110;2023-02-15T04:00:22;-3.00;99.90
15133;DHT22;7667;51.232;17.110;2023-02-15T04:05:44;-2.90;99.90
15133;DHT22;7667;51.232;17.110;2023-02-15T04:08:12;-3.00;99.90
15133;DHT22;7667;51.232;17.110;2023-02-15T04:10:40;-2.90;99.90
15133;DHT22;7667;51.232;17.110;2023-02-15T04:13:33;-2.90;99.90
15133;DHT22;7667;51.232;17.110;2023-02-15T04:16:00;-2.80;99.90
15133;DHT22;7667;51.232;17.110;2023-02-15T04:18:34;-2.70;99.90
15133;DHT22;7667;51.232;17.110;2023-02-15T04:21:26;-2.60;99.90
15133;DHT22;7667;51.232;17.110;2023-02-15T04:24:14;-2.50;99.90
15133;DHT22;7667;51.232;17.110;2023-02-15T04:27:01;-2.40;99.90
15133;DHT22;7667;51.232;17.110;2023-02-15T04:29:29;-2.30;99.90
15133;DHT22;7667;51.232;17.110;2023-02-15T04:31:59;-2.30;99.90
15133;DHT22;7667;51.232;17.110;2023-02-15T04:34:27;-2.30;99.90
15133;DHT22;7667;51.232;17.110;2023-02-15T04:36:55;-2.30;99.90
15133;DHT22;7667;51.232;17.110;2023-02-15T04:39:22;-2.30;99.90
15133;DHT22;7667;51.232;17.110;2023-02-15T04:41:50;-2.30;99.90
15133;DHT22;7667;51.232;17.110;2023-02-15T04:44:17;-2.30;99.90
15133;DHT22;7667;51.232;17.110;2023-02-15T04:46:45;-2.40;99.90
15133;DHT22;7667;51.232;17.110;2023-02-15T04:49:12;-2.40;99.90
15133;DHT22;7667;51.232;17.110;2023-02-15T04:51:40;-2.30;99.90
15133;DHT22;7667;51.232;17.110;2023-02-15T04:54:07;-2.30;99.90
15133;DHT22;7667;51.232;17.110;2023-02-15T04:56:35;-2.30;99.90
15133;DHT22;7667;51.232;17.110;2023-02-15T04:59:04;-2.30;99.90
15133;DHT22;7667;51.232;17.110;2023-02-15T05:01:32;-2.20;99.90
15133;DHT22;7667;51.232;17.110;2023-02-15T05:03:59;-2.10;99.90
15133;DHT22;7667;51.232;17.110;2023-02-15T05:06:27;-2.10;99.90
15133;DHT22;7667;51.232;17.110;2023-02-15T05:08:55;-2.10;99.90
15133;DHT22;7667;51.232;17.110;2023-02-15T05:11:22;-2.10;99.90
15133;DHT22;7667;51.232;17.110;2023-02-15T05:13:50;-2.20;99.90
15133;DHT22;7667;51.232;17.110;2023-02-15T05:16:17;-2.20;99.90
15133;DHT22;7667;51.232;17.110;2023-02-15T05:18:45;-2.10;99.90
15133;DHT22;7667;51.232;17.110;2023-02-15T05:21:12;-2.10;99.90
15133;DHT22;7667;51.232;17.110;2023-02-15T05:23:43;-2.10;99.90
15133;DHT22;7667;51.232;17.110;2023-02-15T05:26:17;-2.10;99.90
15133;DHT22;7667;51.232;17.110;2023-02-15T05:29:06;-2.20;99.90
15133;DHT22;7667;51.232;17.110;2023-02-15T05:31:34;-2.10;99.90
15133;DHT22;7667;51.232;17.110;2023-02-15T05:34:03;-2.10;99.90
15133;DHT22;7667;51.232;17.110;2023-02-15T05:36:31;-2.10;99.90
15133;DHT22;7667;51.232;17.110;2023-02-15T05:38:58;-2.10;99.90
15133;DHT22;7667;51.232;17.110;2023-02-15T05:41:26;-2.10;99.90
15133;DHT22;7667;51.232;17.110;2023-02-15T05:43:55;-2.00;99.90
15133;DHT22;7667;51.232;17.110;2023-02-15T05:46:23;-2.00;99.90
15133;DHT22;7667;51.232;17.110;2023-02-15T05:48:51;-2.00;99.90
15133;DHT22;7667;51.232;17.110;2023-02-15T05:51:18;-2.00;99.90
15133;DHT22;7667;51.232;17.110;2023-02-15T05:53:46;-2.00;99.90
15133;DHT22;7667;51.232;17.110;2023-02-15T05:56:13;-2.00;99.90
15133;DHT22;7667;51.232;17.110;2023-02-15T05:58:41;-1.80;99.90
15133;DHT22;7667;51.232;17.110;2023-02-15T06:03:45;-1.70;99.90
15133;DHT22;7667;51.232;17.110;2023-02-15T06:06:13;-1.70;99.90
15133;DHT22;7667;51.232;17.110;2023-02-15T06:08:40;-1.80;99.90
15133;DHT22;7667;51.232;17.110;2023-02-15T06:11:08;-1.90;99.90
15133;DHT22;7667;51.232;17.110;2023-02-15T06:13:36;-1.90;99.90
15133;DHT22;7667;51.232;17.110;2023-02-15T06:16:06;-2.00;99.90
15133;DHT22;7667;51.232;17.110;2023-02-15T06:18:34;-2.00;99.90
15133;DHT22;7667;51.232;17.110;2023-02-15T06:21:01;-2.00;99.90
15133;DHT22;7667;51.232;17.110;2023-02-15T06:23:29;-2.00;99.90
15133;DHT22;7667;51.232;17.110;2023-02-15T06:25:57;-2.00;99.90
15133;DHT22;7667;51.232;17.110;2023-02-15T06:28:24;-1.90;99.90
15133;DHT22;7667;51.232;17.110;2023-02-15T06:30:52;-1.80;99.90
15133;DHT22;7667;51.232;17.110;2023-02-15T06:33:20;-1.80;99.90
15133;DHT22;7667;51.232;17.110;2023-02-15T06:35:47;-1.70;99.90
15133;DHT22;7667;51.232;17.110;2023-02-15T06:38:15;-1.60;99.90
15133;DHT22;7667;51.232;17.110;2023-02-15T06:40:43;-1.60;99.90
15133;DHT22;7667;51.232;17.110;2023-02-15T06:43:10;-1.50;99.90
15133;DHT22;7667;51.232;17.110;2023-02-15T06:45:38;-1.50;99.90
15133;DHT22;7667;51.232;17.110;2023-02-15T06:48:05;-1.40;99.90
15133;DHT22;7667;51.232;17.110;2023-02-15T06:50:35;-1.30;99.90
15133;DHT22;7667;51.232;17.110;2023-02-15T06:53:02;-1.30;99.90
15133;DHT22;7667;51.232;17.110;2023-02-15T06:55:30;-1.30;99.90
15133;DHT22;7667;51.232;17.110;2023-02-15T06:57:57;-1.20;99.90
15133;DHT22;7667;51.232;17.110;2023-02-15T07:00:25;-1.20;99.90
15133;DHT22;7667;51.232;17.110;2023-02-15T07:02:56;-1.10;99.90
15133;DHT22;7667;51.232;17.110;2023-02-15T07:05:26;-1.00;99.90
15133;DHT22;7667;51.232;17.110;2023-02-15T07:07:58;-0.90;99.90
15133;DHT22;7667;51.232;17.110;2023-02-15T07:10:27;-0.90;99.90
15133;DHT22;7667;51.232;17.110;2023-02-15T07:12:55;-0.90;99.90
15133;DHT22;7667;51.232;17.110;2023-02-15T07:15:22;-0.80;99.90
15133;DHT22;7667;51.232;17.110;2023-02-15T07:17:50;-0.80;99.90
15133;DHT22;7667;51.232;17.110;2023-02-15T07:20:22;-0.70;99.90
15133;DHT22;7667;51.232;17.110;2023-02-15T07:22:50;-0.70;99.90
15133;DHT22;7667;51.232;17.110;2023-02-15T07:25:18;-0.60;99.90
15133;DHT22;7667;51.232;17.110;2023-02-15T07:27:46;-0.60;99.90
15133;DHT22;7667;51.232;17.110;2023-02-15T07:30:15;-0.50;99.90
15133;DHT22;7667;51.232;17.110;2023-02-15T07:32:44;-0.50;99.90
15133;DHT22;7667;51.232;17.110;2023-02-15T07:35:32;-0.40;99.90
15133;DHT22;7667;51.232;17.110;2023-02-15T07:38:00;-0.30;99.90
15133;DHT22;7667;51.232;17.110;2023-02-15T07:40:28;-0.20;99.90
15133;DHT22;7667;51.232;17.110;2023-02-15T07:42:57;-0.20;99.90
15133;DHT22;7667;51.232;17.110;2023-02-15T07:45:26;-0.10;99.90
15133;DHT22;7667;51.232;17.110;2023-02-15T07:47:54;-0.10;99.90
15133;DHT22;7667;51.232;17.110;2023-02-15T07:50:21;0.00;99.90
15133;DHT22;7667;51.232;17.110;2023-02-15T07:52:49;0.10;99.90
15133;DHT22;7667;51.232;17.110;2023-02-15T07:55:16;0.20;99.90
15133;DHT22;7667;51.232;17.110;2023-02-15T07:57:46;0.30;99.90
15133;DHT22;7667;51.232;17.110;2023-02-15T08:00:17;0.30;99.90
15133;DHT22;7667;51.232;17.110;2023-02-15T08:02:49;0.40;99.90
15133;DHT22;7667;51.232;17.110;2023-02-15T08:05:41;0.40;99.90
15133;DHT22;7667;51.232;17.110;2023-02-15T08:08:10;0.60;99.90
15133;DHT22;7667;51.232;17.110;2023-02-15T08:14:13;0.70;99.90
15133;DHT22;7667;51.232;17.110;2023-02-15T08:16:47;0.70;99.90
15133;DHT22;7667;51.232;17.110;2023-02-15T08:19:20;0.80;99.90
15133;DHT22;7667;51.232;17.110;2023-02-15T08:22:00;0.90;99.90
15133;DHT22;7667;51.232;17.110;2023-02-15T08:24:31;0.90;99.90
15133;DHT22;7667;51.232;17.110;2023-02-15T08:27:00;0.90;99.90
15133;DHT22;7667;51.232;17.110;2023-02-15T08:29:33;0.90;99.90
15133;DHT22;7667;51.232;17.110;2023-02-15T08:32:07;1.00;99.90
15133;DHT22;7667;51.232;17.110;2023-02-15T08:34:39;1.10;99.90
15133;DHT22;7667;51.232;17.110;2023-02-15T08:37:08;1.20;99.90
15133;DHT22;7667;51.232;17.110;2023-02-15T08:39:36;1.30;99.90
15133;DHT22;7667;51.232;17.110;2023-02-15T08:42:04;1.40;99.90
15133;DHT22;7667;51.232;17.110;2023-02-15T08:44:31;1.50;99.90
15133;DHT22;7667;51.232;17.110;2023-02-15T08:46:59;1.50;99.90
15133;DHT22;7667;51.232;17.110;2023-02-15T08:49:31;1.70;99.90
15133;DHT22;7667;51.232;17.110;2023-02-15T08:51:59;1.70;99.90
15133;DHT22;7667;51.232;17.110;2023-02-15T08:54:26;1.80;99.90
15133;DHT22;7667;51.232;17.110;2023-02-15T08:56:54;2.00;99.90
15133;DHT22;7667;51.232;17.110;2023-02-15T08:59:22;2.00;99.90
15133;DHT22;7667;51.232;17.110;2023-02-15T09:01:51;2.10;99.90
15133;DHT22;7667;51.232;17.110;2023-02-15T09:04:20;2.20;99.90
15133;DHT22;7667;51.232;17.110;2023-02-15T09:06:50;2.30;99.90
15133;DHT22;7667;51.232;17.110;2023-02-15T09:09:19;2.40;99.90
15133;DHT22;7667;51.232;17.110;2023-02-15T09:11:49;2.50;99.90
15133;DHT22;7667;51.232;17.110;2023-02-15T09:14:24;2.60;99.90
15133;DHT22;7667;51.232;17.110;2023-02-15T09:16:54;2.70;99.90
15133;DHT22;7667;51.232;17.110;2023-02-15T09:19:22;2.80;99.90
15133;DHT22;7667;51.232;17.110;2023-02-15T09:21:50;2.80;99.90
15133;DHT22;7667;51.232;17.110;2023-02-15T09:24:18;2.90;99.90
15133;DHT22;7667;51.232;17.110;2023-02-15T09:26:47;3.10;99.90
15133;DHT22;7667;51.232;17.110;2023-02-15T09:29:16;3.20;99.90
15133;DHT22;7667;51.232;17.110;2023-02-15T09:31:47;3.30;99.90
15133;DHT22;7667;51.232;17.110;2023-02-15T09:34:17;3.40;99.90
15133;DHT22;7667;51.232;17.110;2023-02-15T09:36:47;3.60;99.90
15133;DHT22;7667;51.232;17.110;2023-02-15T09:39:16;3.70;99.90
15133;DHT22;7667;51.232;17.110;2023-02-15T09:45:04;3.70;99.90
15133;DHT22;7667;51.232;17.110;2023-02-15T09:56:24;4.40;99.90
15133;DHT22;7667;51.232;17.110;2023-02-15T10:02:04;4.50;99.90
15133;DHT22;7667;51.232;17.110;2023-02-15T10:11:16;4.70;99.90
15133;DHT22;7667;51.232;17.110;2023-02-15T10:14:24;4.90;99.90
15133;DHT22;7667;51.232;17.110;2023-02-15T10:28:13;5.60;99.90
15133;DHT22;7667;51.232;17.110;2023-02-15T10:30:51;5.50;99.90
15133;DHT22;7667;51.232;17.110;2023-02-15T10:33:43;5.70;99.90
15133;DHT22;7667;51.232;17.110;2023-02-15T10:45:31;6.00;99.90
15133;DHT22;7667;51.232;17.110;2023-02-15T10:55:01;6.20;99.90
15133;DHT22;7667;51.232;17.110;2023-02-15T11:01:05;6.50;99.90
15133;DHT22;7667;51.232;17.110;2023-02-15T11:07:00;6.70;99.90
15133;DHT22;7667;51.232;17.110;2023-02-15T11:09:40;6.80;99.90
15133;DHT22;7667;51.232;17.110;2023-02-15T11:12:15;6.70;99.90
15133;DHT22;7667;51.232;17.110;2023-02-15T11:17:33;7.00;99.90
15133;DHT22;7667;51.232;17.110;2023-02-15T11:20:23;7.00;99.90
15133;DHT22;7667;51.232;17.110;2023-02-15T11:22:52;7.30;99.90
15133;DHT22;7667;51.232;17.110;2023-02-15T11:25:25;7.30;99.90
15133;DHT22;7667;51.232;17.110;2023-02-15T11:27:57;7.50;99.90
15133;DHT22;7667;51.232;17.110;2023-02-15T11:30:40;7.50;99.90
15133;DHT22;7667;51.232;17.110;2023-02-15T11:33:19;7.40;99.90
15133;DHT22;7667;51.232;17.110;2023-02-15T11:35:54;7.40;99.90
15133;DHT22;7667;51.232;17.110;2023-02-15T11:38:32;7.70;99.90
15133;DHT22;7667;51.232;17.110;2023-02-15T11:41:07;7.90;99.90
15133;DHT22;7667;51.232;17.110;2023-02-15T11:43:49;7.80;99.90
15133;DHT22;7667;51.232;17.110;2023-02-15T11:46:18;7.80;99.90
15133;DHT22;7667;51.232;17.110;2023-02-15T11:48:48;7.80;99.90
15133;DHT22;7667;51.232;17.110;2023-02-15T11:51:18;7.70;99.90
15133;DHT22;7667;51.232;17.110;2023-02-15T11:53:50;7.70;99.90
15133;DHT22;7667;51.232;17.110;2023-02-15T11:56:23;7.70;99.90
15133;DHT22;7667;51.232;17.110;2023-02-15T12:01:37;7.90;99.90
15133;DHT22;7667;51.232;17.110;2023-02-15T12:04:38;8.20;99.90
15133;DHT22;7667;51.232;17.110;2023-02-15T12:07:15;8.40;99.90
15133;DHT22;7667;51.232;17.110;2023-02-15T12:10:16;8.40;99.90
15133;DHT22;7667;51.232;17.110;2023-02-15T12:13:16;8.40;99.90
15133;DHT22;7667;51.232;17.110;2023-02-15T12:15:53;8.40;99.90
15133;DHT22;7667;51.232;17.110;2023-02-15T12:18:38;8.70;99.90
15133;DHT22;7667;51.232;17.110;2023-02-15T12:21:14;8.90;99.90
15133;DHT22;7667;51.232;17.110;2023-02-15T12:23:55;9.00;99.90
15133;DHT22;7667;51.232;17.110;2023-02-15T12:26:32;9.20;99.90
15133;DHT22;7667;51.232;17.110;2023-02-15T12:29:11;9.20;99.90
15133;DHT22;7667;51.232;17.110;2023-02-15T12:31:49;9.60;99.90
15133;DHT22;7667;51.232;17.110;2023-02-15T12:34:28;9.80;99.90
15133;DHT22;7667;51.232;17.110;2023-02-15T12:37:02;9.90;99.90
15133;DHT22;7667;51.232;17.110;2023-02-15T12:39:36;10.30;99.90
15133;DHT22;7667;51.232;17.110;2023-02-15T12:42:15;10.50;99.90
15133;DHT22;7667;51.232;17.110;2023-02-15T12:45:01;11.00;99.90
15133;DHT22;7667;51.232;17.110;2023-02-15T12:47:53;11.10;99.90
15133;DHT22;7667;51.232;17.110;2023-02-15T12:50:50;11.20;99.90
15133;DHT22;7667;51.232;17.110;2023-02-15T12:53:32;11.30;99.90
15133;DHT22;7667;51.232;17.110;2023-02-15T12:56:04;11.60;99.90
15133;DHT22;7667;51.232;17.110;2023-02-15T12:58:40;11.90;99.90
15133;DHT22;7667;51.232;17.110;2023-02-15T13:01:16;12.00;99.90
15133;DHT22;7667;51.232;17.110;2023-02-15T13:04:01;12.40;99.90
15133;DHT22;7667;51.232;17.110;2023-02-15T13:06:34;12.70;99.90
15133;DHT22;7667;51.232;17.110;2023-02-15T13:09:16;13.00;99.50
15133;DHT22;7667;51.232;17.110;2023-02-15T13:11:47;12.50;97.90
15133;DHT22;7667;51.232;17.110;2023-02-15T13:14:19;12.70;98.30
15133;DHT22;7667;51.232;17.110;2023-02-15T13:16:51;13.00;94.90
15133;DHT22;7667;51.232;17.110;2023-02-15T13:19:21;13.10;96.10
15133;DHT22;7667;51.232;17.110;2023-02-15T13:21:54;13.20;95.80
15133;DHT22;7667;51.232;17.110;2023-02-15T13:24:40;13.40;93.90
15133;DHT22;7667;51.232;17.110;2023-02-15T13:27:29;13.60;93.40
15133;DHT22;7667;51.232;17.110;2023-02-15T13:30:27;13.70;93.30
15133;DHT22;7667;51.232;17.110;2023-02-15T13:33:03;13.80;91.60
15133;DHT22;7667;51.232;17.110;2023-02-15T13:39:03;13.60;91.90
15133;DHT22;7667;51.232;17.110;2023-02-15T13:42:00;13.50;92.20
15133;DHT22;7667;51.232;17.110;2023-02-15T14:05:12;13.70;90.00
15133;DHT22;7667;51.232;17.110;2023-02-15T14:10:59;14.10;90.10
15133;DHT22;7667;51.232;17.110;2023-02-15T14:25:05;14.10;88.50
15133;DHT22;7667;51.232;17.110;2023-02-15T14:27:54;13.70;90.40
15133;DHT22;7667;51.232;17.110;2023-02-15T14:30:46;13.50;90.10
15133;DHT22;7667;51.232;17.110;2023-02-15T14:35:55;13.50;90.40
15133;DHT22;7667;51.232;17.110;2023-02-15T14:43:18;13.50;90.00
15133;DHT22;7667;51.232;17.110;2023-02-15T14:45:34;13.10;91.00
15133;DHT22;7667;51.232;17.110;2023-02-15T15:05:20;12.80;91.10
15133;DHT22;7667;51.232;17.110;2023-02-15T15:07:57;12.70;91.40
15133;DHT22;7667;51.232;17.110;2023-02-15T15:12:54;12.50;91.70
15133;DHT22;7667;51.232;17.110;2023-02-15T15:20:42;12.00;93.20
15133;DHT22;7667;51.232;17.110;2023-02-15T15:25:55;11.30;94.80
15133;DHT22;7667;51.232;17.110;2023-02-15T15:31:20;11.10;96.20
15133;DHT22;7667;51.232;17.110;2023-02-15T15:49:16;9.00;99.90
15133;DHT22;7667;51.232;17.110;2023-02-15T15:51:47;8.70;99.90
15133;DHT22;7667;51.232;17.110;2023-02-15T15:54:18;8.40;99.90
15133;DHT22;7667;51.232;17.110;2023-02-15T15:56:51;8.00;99.90
15133;DHT22;7667;51.232;17.110;2023-02-15T15:59:28;7.60;99.90
15133;DHT22;7667;51.232;17.110;2023-02-15T16:02:05;7.20;99.90
15133;DHT22;7667;51.232;17.110;2023-02-15T16:04:35;6.80;99.90
15133;DHT22;7667;51.232;17.110;2023-02-15T16:10:24;6.00;99.90
15133;DHT22;7667;51.232;17.110;2023-02-15T16:12:54;5.60;99.90
15133;DHT22;7667;51.232;17.110;2023-02-15T16:15:45;5.40;99.90
15133;DHT22;7667;51.232;17.110;2023-02-15T16:18:18;5.20;99.90
15133;DHT22;7667;51.232;17.110;2023-02-15T16:20:57;5.10;99.90
15133;DHT22;7667;51.232;17.110;2023-02-15T16:29:30;4.60;99.90
15133;DHT22;7667;51.232;17.110;2023-02-15T16:32:04;4.40;99.90
15133;DHT22;7667;51.232;17.110;2023-02-15T16:34:59;4.20;99.90
15133;DHT22;7667;51.232;17.110;2023-02-15T16:37:33;4.20;99.90
15133;DHT22;7667;51.232;17.110;2023-02-15T16:40:01;4.10;99.90
15133;DHT22;7667;51.232;17.110;2023-02-15T16:42:30;4.00;99.90
15133;DHT22;7667;51.232;17.110;2023-02-15T16:47:42;4.00;99.90
15133;DHT22;7667;51.232;17.110;2023-02-15T16:50:21;3.80;99.90
15133;DHT22;7667;51.232;17.110;2023-02-15T16:52:51;3.70;99.90
15133;DHT22;7667;51.232;17.110;2023-02-15T16:55:27;3.60;99.90
15133;DHT22;7667;51.232;17.110;2023-02-15T16:58:01;3.40;99.90
15133;DHT22;7667;51.232;17.110;2023-02-15T17:00:35;3.20;99.90
15133;DHT22;7667;51.232;17.110;2023-02-15T17:03:19;3.00;99.90
15133;DHT22;7667;51.232;17.110;2023-02-15T17:05:54;2.80;99.90
15133;DHT22;7667;51.232;17.110;2023-02-15T17:13:27;2.20;99.90
15133;DHT22;7667;51.232;17.110;2023-02-15T17:18:44;2.10;99.90
15133;DHT22;7667;51.232;17.110;2023-02-15T17:21:25;2.00;99.90
15133;DHT22;7667;51.232;17.110;2023-02-15T17:24:01;1.90;99.90
15133;DHT22;7667;51.232;17.110;2023-02-15T17:26:34;1.90;99.90
15133;DHT22;7667;51.232;17.110;2023-02-15T17:32:20;2.10;99.90
15133;DHT22;7667;51.232;17.110;2023-02-15T17:37:43;2.00;99.90
15133;DHT22;7667;51.232;17.110;2023-02-15T17:40:27;2.00;99.90
15133;DHT22;7667;51.232;17.110;2023-02-15T17:42:56;1.90;99.90
15133;DHT22;7667;51.232;17.110;2023-02-15T17:45:30;1.80;99.90
15133;DHT22;7667;51.232;17.110;2023-02-15T17:48:04;1.70;99.90
15133;DHT22;7667;51.232;17.110;2023-02-15T17:50:33;1.60;99.90
15133;DHT22;7667;51.232;17.110;2023-02-15T17:53:01;1.50;99.90
15133;DHT22;7667;51.232;17.110;2023-02-15T17:55:29;1.50;99.90
15133;DHT22;7667;51.232;17.110;2023-02-15T17:58:11;1.30;99.90
15133;DHT22;7667;51.232;17.110;2023-02-15T18:00:51;1.20;99.90
15133;DHT22;7667;51.232;17.110;2023-02-15T18:03:50;1.10;99.90
15133;DHT22;7667;51.232;17.110;2023-02-15T18:06:39;0.90;99.90
15133;DHT22;7667;51.232;17.110;2023-02-15T18:09:26;0.80;99.90
15133;DHT22;7667;51.232;17.110;2023-02-15T18:12:29;0.70;99.90
15133;DHT22;7667;51.232;17.110;2023-02-15T18:14:59;0.80;99.90
15133;DHT22;7667;51.232;17.110;2023-02-15T18:17:38;0.90;99.90
15133;DHT22;7667;51.232;17.110;2023-02-15T18:20:20;1.10;99.90
15133;DHT22;7667;51.232;17.110;2023-02-15T18:22:50;1.20;99.90
15133;DHT22;7667;51.232;17.110;2023-02-15T18:25:20;1.40;99.90
15133;DHT22;7667;51.232;17.110;2023-02-15T18:27:50;1.30;99.90
15133;DHT22;7667;51.232;17.110;2023-02-15T18:30:22;1.20;99.90
15133;DHT22;7667;51.232;17.110;2023-02-15T18:32:55;1.20;99.90
15133;DHT22;7667;51.232;17.110;2023-02-15T18:35:26;1.10;99.90
15133;DHT22;7667;51.232;17.110;2023-02-15T18:37:58;1.10;99.90
15133;DHT22;7667;51.232;17.110;2023-02-15T18:40:28;1.20;99.90
15133;DHT22;7667;51.232;17.110;2023-02-15T18:42:55;1.30;99.90
15133;DHT22;7667;51.232;17.110;2023-02-15T18:45:25;1.30;99.90
15133;DHT22;7667;51.232;17.110;2023-02-15T18:48:02;1.30;99.90
15133;DHT22;7667;51.232;17.110;2023-02-15T18:50:33;1.10;99.90
15133;DHT22;7667;51.232;17.110;2023-02-15T18:53:03;1.00;99.90
15133;DHT22;7667;51.232;17.110;2023-02-15T18:55:31;0.90;99.90
15133;DHT22;7667;51.232;17.110;2023-02-15T18:58:00;0.70;99.90
15133;DHT22;7667;51.232;17.110;2023-02-15T19:00:31;0.40;99.90
15133;DHT22;7667;51.232;17.110;2023-02-15T19:03:00;0.30;99.90
15133;DHT22;7667;51.232;17.110;2023-02-15T19:05:29;0.20;99.90
15133;DHT22;7667;51.232;17.110;2023-02-15T19:07:59;0.10;99.90
15133;DHT22;7667;51.232;17.110;2023-02-15T19:10:29;0.00;99.90
15133;DHT22;7667;51.232;17.110;2023-02-15T19:12:57;0.00;99.90
15133;DHT22;7667;51.232;17.110;2023-02-15T19:15:27;0.10;99.90
15133;DHT22;7667;51.232;17.110;2023-02-15T19:17:58;0.10;99.90
15133;DHT22;7667;51.232;17.110;2023-02-15T19:20:30;0.20;99.90
15133;DHT22;7667;51.232;17.110;2023-02-15T19:23:04;0.30;99.90
15133;DHT22;7667;51.232;17.110;2023-02-15T19:25:35;0.40;99.90
15133;DHT22;7667;51.232;17.110;2023-02-15T19:28:11;0.40;99.90
15133;DHT22;7667;51.232;17.110;2023-02-15T19:30:44;0.30;99.90
15133;DHT22;7667;51.232;17.110;2023-02-15T19:33:17;0.30;99.90
15133;DHT22;7667;51.232;17.110;2023-02-15T19:35:48;0.20;99.90
15133;DHT22;7667;51.232;17.110;2023-02-15T19:38:24;0.00;99.90
15133;DHT22;7667;51.232;17.110;2023-02-15T19:40:58;-0.10;99.90
15133;DHT22;7667;51.232;17.110;2023-02-15T19:43:30;-0.10;99.90
15133;DHT22;7667;51.232;17.110;2023-02-15T19:46:00;-0.10;99.90
15133;DHT22;7667;51.232;17.110;2023-02-15T19:48:28;-0.20;99.90